WetterOnline ( http://www.wetteronline.de )

Wetter aktuell Bonn

Aktuelles Wetter: Roleber (162m)

6-stündlich | Neueste Meldungen
Ortszeit Temperatur Wetter
Di, 19.02. 19:00 6.7° C wolkig
Di, 19.02. 13:00 10.6° C leicht bewölkt
Di, 19.02. 7:00 6.4° C leichter Regen
Di, 19.02. 1:00 8.1° C bedeckt
Mo, 18.02. 19:00 11.0° C bewölkt
Mo, 18.02. 13:00 13.5° C wolkenlos
Mo, 18.02. 7:00 2.2° C wolkenlos
Mo, 18.02. 1:00 3.8° C wolkenlos
Ortszeit Temperatur Wetter
Di, 19.02. 19:30 6.3° C leicht bewölkt
Di, 19.02. 19:20 6.3° C leicht bewölkt
Di, 19.02. 19:10 6.2° C wolkig
Di, 19.02. 19:00 6.7° C wolkig
Di, 19.02. 18:50 6.7° C wolkig
Di, 19.02. 18:40 7.0° C leicht bewölkt
Di, 19.02. 18:30 7.6° C fast wolkenlos
Di, 19.02. 18:00 8.4° C wolkenlos
Di, 19.02. 17:30 9.2° C wolkenlos
Di, 19.02. 17:00 9.8° C wolkenlos
Di, 19.02. 16:30 10.4° C leicht bewölkt
Ortszeit Relative Feuchte Sichtweite
Di, 19.02. 19:00 68% 45 km
Di, 19.02. 13:00 51% 30 km
Di, 19.02. 7:00 89% 3.3 km
Di, 19.02. 1:00 64% 35 km
Mo, 18.02. 19:00 49% 45 km
Mo, 18.02. 13:00 46% 24 km
Mo, 18.02. 7:00 79% 23 km
Mo, 18.02. 1:00 77% 22 km
Ortszeit Relative Feuchte Sichtweite
Di, 19.02. 19:30 71% 40 km
Di, 19.02. 19:20 71% -
Di, 19.02. 19:10 71% -
Di, 19.02. 19:00 68% 45 km
Di, 19.02. 18:50 68% -
Di, 19.02. 18:40 67% -
Di, 19.02. 18:30 64% 50 km
Di, 19.02. 18:00 60% 50 km
Di, 19.02. 17:30 58% 45 km
Di, 19.02. 17:00 56% 45 km
Di, 19.02. 16:30 56% 50 km
Ortszeit Niederschlagsmenge Niederschlagsart
Di, 19.02. 19:00 0.4 l/m2 in 12 Std. -
Di, 19.02. 13:00 0.4 l/m2 in 6 Std. Regen
Di, 19.02. 7:00 0.4 l/m2 in 12 Std. Regen
Di, 19.02. 1:00 0.0 l/m2 in 6 Std. -
Mo, 18.02. 19:00 0.0 l/m2 in 12 Std. -
Mo, 18.02. 13:00 0.0 l/m2 in 6 Std. -
Mo, 18.02. 7:00 0.0 l/m2 in 12 Std. -
Mo, 18.02. 1:00 0.0 l/m2 in 6 Std. -
Ortszeit Niederschlagsmenge Niederschlagsart
Di, 19.02. 19:30 0.0 l/m2 in 1 Std. -
Di, 19.02. 19:20 keine Meldung -
Di, 19.02. 19:10 keine Meldung -
Di, 19.02. 19:00 0.0 l/m2 in 1 Std. -
Di, 19.02. 18:50 keine Meldung -
Di, 19.02. 18:40 keine Meldung -
Di, 19.02. 18:30 0.0 l/m2 in 1 Std. -
Di, 19.02. 18:00 0.0 l/m2 in 1 Std. -
Di, 19.02. 17:30 0.0 l/m2 in 1 Std. -
Di, 19.02. 17:00 0.0 l/m2 in 1 Std. -
Di, 19.02. 16:30 0.0 l/m2 in 1 Std. -
Ortszeit Stärke Spitze Richtung
km/h Bft. km/h Grad Sektor
Di, 19.02. 19:00 7 2 36 280° W
Di, 19.02. 13:00 11 2 29 260° W
Di, 19.02. 7:00 4 1 25 230° SW
Di, 19.02. 1:00 13 3 30 200° S
Mo, 18.02. 19:00 18 3 32 200° S
Mo, 18.02. 13:00 9 2 19 190° S
Mo, 18.02. 7:00 7 2 18 180° S
Mo, 18.02. 1:00 9 2 13 150° SO
Ortszeit Stärke Spitze Richtung
km/h Bft. km/h Grad Sektor
Di, 19.02. 19:30 7 2 11 280° W
Di, 19.02. 19:20 7 2 - 280° W
Di, 19.02. 19:10 7 2 - 280° W
Di, 19.02. 19:00 7 2 18 280° W
Di, 19.02. 18:50 7 2 - 280° W
Di, 19.02. 18:40 7 2 - 280° W
Di, 19.02. 18:30 7 2 17 290° W
Di, 19.02. 18:00 13 3 24 290° W
Di, 19.02. 17:30 13 3 24 290° W
Di, 19.02. 17:00 15 3 31 290° W
Di, 19.02. 16:30 18 3 32 300° NW
Ortszeit Untergrenze Bedeckung Gattung
total tief tief mittel hoch
Di, 19.02. 19:00 1500 m 7/8 1/8 - - -
Di, 19.02. 13:00 990 m 3/8 3/8 - - -
Di, 19.02. 7:00 480 m 8/8 8/8 - - -
Di, 19.02. 1:00 6000 m 8/8 8/8 - - -
Mo, 18.02. 19:00 6600 m 8/8 4/8 - - -
Mo, 18.02. 13:00 - 0/8 0/8 - - -
Mo, 18.02. 7:00 - 0/8 0/8 - - -
Mo, 18.02. 1:00 - 0/8 0/8 - - -
Ortszeit Bedeckungsgrad in Achtel und Wolkenuntergrenze
Di, 19.02. 19:30 2(1440m) 5(9000m) 5(9000m)
Di, 19.02. 19:20 2(1440m) 5(9000m) 5(9000m)
Di, 19.02. 19:10 2(1470m) 7(9000m)
Di, 19.02. 19:00 1(1500m) 7(9000m) 7(9000m)
Di, 19.02. 18:50 1(1500m) 7(9000m)
Di, 19.02. 18:40 5(9000m)
Di, 19.02. 18:30 1(1500m)
Di, 19.02. 18:00 keine Wolken
Di, 19.02. 17:30 keine Wolken
Di, 19.02. 17:00 keine Wolken
Di, 19.02. 16:30 4(1260m)
Ortszeit Luftdruck NN (hPa) Tendenz (hPa in 3 Std.)
Di, 19.02. 19:00 1021 + 0,8
Di, 19.02. 13:00 1020 + 0,2
Di, 19.02. 7:00 1018 + 0,8
Di, 19.02. 1:00 1017 0,0
Mo, 18.02. 19:00 1017 0,0
Mo, 18.02. 13:00 1019 - 1,2
Mo, 18.02. 7:00 1021 - 0,3
Mo, 18.02. 1:00 1022 - 0,1
Ortszeit Luftdruck NN (hPa) Tendenz (hPa in 3 Std.)
Di, 19.02. 19:30 1022 + 1,0
Di, 19.02. 19:20 1022 keine Meldung
Di, 19.02. 19:10 1022 keine Meldung
Di, 19.02. 19:00 1021 + 0,8
Di, 19.02. 18:50 1021 keine Meldung
Di, 19.02. 18:40 1021 keine Meldung
Di, 19.02. 18:30 1021 + 0,6
Di, 19.02. 18:00 1021 + 0,5
Di, 19.02. 17:30 1021 + 0,3
Di, 19.02. 17:00 1021 + 0,4
Di, 19.02. 16:30 1020 + 0,2
Ortszeit Schneehöhe (cm)
Di, 19.02. 19:00 0
Di, 19.02. 13:00 0
Di, 19.02. 7:00 0
Di, 19.02. 1:00 0
Mo, 18.02. 19:00 0
Mo, 18.02. 13:00 0
Mo, 18.02. 7:00 0
Mo, 18.02. 1:00 0
Ortszeit Schneehöhe (cm)
Di, 19.02. 19:30 0
Di, 19.02. 19:20 0
Di, 19.02. 19:10 0
Di, 19.02. 19:00 0
Di, 19.02. 18:50 0
Di, 19.02. 18:40 0
Di, 19.02. 18:30 0
Di, 19.02. 18:00 0
Di, 19.02. 17:30 0
Di, 19.02. 17:00 0
Di, 19.02. 16:30 0
Link zu dieser Seite / Seite empfehlen

Das Wetter in ...